sensor_id;sensor_type;location;lat;lon;timestamp;P1;durP1;ratioP1;P2;durP2;ratioP2
3979;SDS011;2004;52.452;13.120;2022-07-19T00:03:39;12.00;;;7.60;;
3979;SDS011;2004;52.452;13.120;2022-07-19T00:11:30;9.00;;;5.20;;
3979;SDS011;2004;52.452;13.120;2022-07-19T00:19:21;9.03;;;5.83;;
3979;SDS011;2004;52.452;13.120;2022-07-19T00:27:12;9.00;;;6.40;;
3979;SDS011;2004;52.452;13.120;2022-07-19T00:35:03;6.67;;;5.40;;
3979;SDS011;2004;52.452;13.120;2022-07-19T00:42:53;8.57;;;6.17;;
3979;SDS011;2004;52.452;13.120;2022-07-19T00:50:46;9.53;;;5.47;;
3979;SDS011;2004;52.452;13.120;2022-07-19T00:58:37;5.97;;;5.30;;
3979;SDS011;2004;52.452;13.120;2022-07-19T01:06:29;8.40;;;5.60;;
3979;SDS011;2004;52.452;13.120;2022-07-19T01:14:19;6.20;;;5.60;;
3979;SDS011;2004;52.452;13.120;2022-07-19T01:22:10;13.63;;;5.70;;
3979;SDS011;2004;52.452;13.120;2022-07-19T01:30:00;7.83;;;5.60;;
3979;SDS011;2004;52.452;13.120;2022-07-19T01:37:51;8.27;;;5.17;;
3979;SDS011;2004;52.452;13.120;2022-07-19T01:45:41;5.60;;;5.00;;
3979;SDS011;2004;52.452;13.120;2022-07-19T01:53:32;8.80;;;6.47;;
3979;SDS011;2004;52.452;13.120;2022-07-19T02:01:23;8.30;;;5.80;;
3979;SDS011;2004;52.452;13.120;2022-07-19T02:09:13;6.43;;;5.17;;
3979;SDS011;2004;52.452;13.120;2022-07-19T02:17:04;8.07;;;5.03;;
3979;SDS011;2004;52.452;13.120;2022-07-19T02:24:55;9.23;;;5.57;;
3979;SDS011;2004;52.452;13.120;2022-07-19T02:32:45;6.47;;;5.53;;
3979;SDS011;2004;52.452;13.120;2022-07-19T02:40:36;9.27;;;5.53;;
3979;SDS011;2004;52.452;13.120;2022-07-19T02:48:27;8.40;;;5.60;;
3979;SDS011;2004;52.452;13.120;2022-07-19T02:56:18;8.00;;;5.53;;
3979;SDS011;2004;52.452;13.120;2022-07-19T03:04:08;9.90;;;6.00;;
3979;SDS011;2004;52.452;13.120;2022-07-19T03:11:59;7.70;;;5.60;;
3979;SDS011;2004;52.452;13.120;2022-07-19T03:19:49;7.67;;;5.70;;
3979;SDS011;2004;52.452;13.120;2022-07-19T03:27:41;7.90;;;5.33;;
3979;SDS011;2004;52.452;13.120;2022-07-19T03:35:31;12.67;;;6.23;;
3979;SDS011;2004;52.452;13.120;2022-07-19T03:43:22;13.20;;;6.00;;
3979;SDS011;2004;52.452;13.120;2022-07-19T03:51:13;10.10;;;5.77;;
3979;SDS011;2004;52.452;13.120;2022-07-19T03:59:03;8.10;;;6.50;;
3979;SDS011;2004;52.452;13.120;2022-07-19T04:06:54;6.37;;;5.73;;
3979;SDS011;2004;52.452;13.120;2022-07-19T04:14:45;8.13;;;5.67;;
3979;SDS011;2004;52.452;13.120;2022-07-19T04:22:35;9.80;;;6.23;;
3979;SDS011;2004;52.452;13.120;2022-07-19T04:30:26;7.40;;;6.13;;
3979;SDS011;2004;52.452;13.120;2022-07-19T04:38:16;5.50;;;4.57;;
3979;SDS011;2004;52.452;13.120;2022-07-19T04:46:07;9.80;;;6.33;;
3979;SDS011;2004;52.452;13.120;2022-07-19T04:53:57;9.27;;;5.63;;
3979;SDS011;2004;52.452;13.120;2022-07-19T05:01:48;9.83;;;6.83;;
3979;SDS011;2004;52.452;13.120;2022-07-19T05:09:38;8.77;;;6.03;;
3979;SDS011;2004;52.452;13.120;2022-07-19T05:17:29;12.63;;;5.83;;
3979;SDS011;2004;52.452;13.120;2022-07-19T05:25:20;13.13;;;4.83;;
3979;SDS011;2004;52.452;13.120;2022-07-19T05:33:10;7.40;;;4.23;;
3979;SDS011;2004;52.452;13.120;2022-07-19T05:41:01;4.07;;;3.50;;
3979;SDS011;2004;52.452;13.120;2022-07-19T05:48:51;6.03;;;3.40;;
3979;SDS011;2004;52.452;13.120;2022-07-19T05:56:42;6.80;;;4.73;;
3979;SDS011;2004;52.452;13.120;2022-07-19T06:04:33;10.33;;;4.30;;
3979;SDS011;2004;52.452;13.120;2022-07-19T06:12:23;6.40;;;3.13;;
3979;SDS011;2004;52.452;13.120;2022-07-19T06:20:14;10.37;;;4.10;;
3979;SDS011;2004;52.452;13.120;2022-07-19T06:28:04;8.33;;;3.53;;
3979;SDS011;2004;52.452;13.120;2022-07-19T06:35:55;2.97;;;2.70;;
3979;SDS011;2004;52.452;13.120;2022-07-19T06:43:45;4.93;;;3.17;;
3979;SDS011;2004;52.452;13.120;2022-07-19T06:51:36;6.53;;;3.23;;
3979;SDS011;2004;52.452;13.120;2022-07-19T06:59:26;7.63;;;3.27;;
3979;SDS011;2004;52.452;13.120;2022-07-19T07:07:17;4.83;;;2.60;;
3979;SDS011;2004;52.452;13.120;2022-07-19T07:15:07;10.03;;;3.50;;
3979;SDS011;2004;52.452;13.120;2022-07-19T07:22:58;27.20;;;8.10;;
3979;SDS011;2004;52.452;13.120;2022-07-19T07:30:49;9.73;;;2.43;;
3979;SDS011;2004;52.452;13.120;2022-07-19T07:38:39;6.13;;;2.60;;
3979;SDS011;2004;52.452;13.120;2022-07-19T07:46:30;7.27;;;3.40;;
3979;SDS011;2004;52.452;13.120;2022-07-19T07:54:20;6.43;;;2.87;;
3979;SDS011;2004;52.452;13.120;2022-07-19T08:02:11;7.20;;;2.33;;
3979;SDS011;2004;52.452;13.120;2022-07-19T08:10:05;6.07;;;2.83;;
3979;SDS011;2004;52.452;13.120;2022-07-19T08:17:57;9.53;;;2.83;;
3979;SDS011;2004;52.452;13.120;2022-07-19T08:25:47;3.70;;;2.60;;
3979;SDS011;2004;52.452;13.120;2022-07-19T08:33:38;6.20;;;2.60;;
3979;SDS011;2004;52.452;13.120;2022-07-19T08:41:29;8.00;;;2.57;;
3979;SDS011;2004;52.452;13.120;2022-07-19T08:49:20;4.43;;;2.50;;
3979;SDS011;2004;52.452;13.120;2022-07-19T08:57:11;7.18;;;2.70;;
3979;SDS011;2004;52.452;13.120;2022-07-19T09:05:20;5.13;;;2.77;;
3979;SDS011;2004;52.452;13.120;2022-07-19T09:13:12;4.75;;;2.70;;
3979;SDS011;2004;52.452;13.120;2022-07-19T09:21:05;6.13;;;2.80;;
3979;SDS011;2004;52.452;13.120;2022-07-19T09:28:56;7.93;;;2.87;;
3979;SDS011;2004;52.452;13.120;2022-07-19T09:45:09;2.93;;;2.70;;
3979;SDS011;2004;52.452;13.120;2022-07-19T09:53:01;9.13;;;2.70;;
3979;SDS011;2004;52.452;13.120;2022-07-19T10:00:53;6.70;;;3.10;;
3979;SDS011;2004;52.452;13.120;2022-07-19T10:08:44;15.20;;;2.63;;
3979;SDS011;2004;52.452;13.120;2022-07-19T10:16:47;4.53;;;2.70;;
3979;SDS011;2004;52.452;13.120;2022-07-19T10:32:50;7.70;;;2.03;;
3979;SDS011;2004;52.452;13.120;2022-07-19T10:48:40;9.90;;;2.57;;
3979;SDS011;2004;52.452;13.120;2022-07-19T10:56:39;4.40;;;2.50;;
3979;SDS011;2004;52.452;13.120;2022-07-19T11:04:32;2.30;;;2.20;;
3979;SDS011;2004;52.452;13.120;2022-07-19T11:12:25;3.57;;;2.30;;
3979;SDS011;2004;52.452;13.120;2022-07-19T11:20:18;2.77;;;2.57;;
3979;SDS011;2004;52.452;13.120;2022-07-19T11:28:21;3.67;;;2.03;;
3979;SDS011;2004;52.452;13.120;2022-07-19T11:36:12;3.77;;;1.90;;
3979;SDS011;2004;52.452;13.120;2022-07-19T11:44:08;7.33;;;2.17;;
3979;SDS011;2004;52.452;13.120;2022-07-19T11:52:00;3.03;;;1.67;;
3979;SDS011;2004;52.452;13.120;2022-07-19T11:59:50;1.37;;;1.20;;
3979;SDS011;2004;52.452;13.120;2022-07-19T12:07:45;1.90;;;1.70;;
3979;SDS011;2004;52.452;13.120;2022-07-19T12:15:49;1.93;;;1.60;;
3979;SDS011;2004;52.452;13.120;2022-07-19T12:32:09;2.43;;;1.90;;
3979;SDS011;2004;52.452;13.120;2022-07-19T12:40:03;2.93;;;2.27;;
3979;SDS011;2004;52.452;13.120;2022-07-19T12:48:08;2.43;;;2.23;;
3979;SDS011;2004;52.452;13.120;2022-07-19T12:56:06;2.67;;;1.90;;
3979;SDS011;2004;52.452;13.120;2022-07-19T13:03:57;6.17;;;2.20;;
3979;SDS011;2004;52.452;13.120;2022-07-19T13:11:47;5.03;;;2.13;;
3979;SDS011;2004;52.452;13.120;2022-07-19T13:19:38;4.00;;;2.27;;
3979;SDS011;2004;52.452;13.120;2022-07-19T13:27:30;7.88;;;2.30;;
3979;SDS011;2004;52.452;13.120;2022-07-19T13:35:20;2.30;;;2.20;;
3979;SDS011;2004;52.452;13.120;2022-07-19T13:43:11;5.53;;;2.87;;
3979;SDS011;2004;52.452;13.120;2022-07-19T13:51:02;5.67;;;2.60;;
3979;SDS011;2004;52.452;13.120;2022-07-19T13:58:52;5.53;;;2.50;;
3979;SDS011;2004;52.452;13.120;2022-07-19T14:06:43;6.50;;;2.73;;
3979;SDS011;2004;52.452;13.120;2022-07-19T14:14:33;4.07;;;2.70;;
3979;SDS011;2004;52.452;13.120;2022-07-19T14:22:24;4.70;;;2.50;;
3979;SDS011;2004;52.452;13.120;2022-07-19T14:30:14;13.37;;;2.80;;
3979;SDS011;2004;52.452;13.120;2022-07-19T14:38:05;9.48;;;2.80;;
3979;SDS011;2004;52.452;13.120;2022-07-19T14:45:56;4.60;;;2.30;;
3979;SDS011;2004;52.452;13.120;2022-07-19T14:53:46;12.60;;;3.10;;
3979;SDS011;2004;52.452;13.120;2022-07-19T15:01:37;7.10;;;2.67;;
3979;SDS011;2004;52.452;13.120;2022-07-19T15:09:27;11.57;;;3.10;;
3979;SDS011;2004;52.452;13.120;2022-07-19T15:17:18;7.63;;;3.27;;
3979;SDS011;2004;52.452;13.120;2022-07-19T15:25:08;9.33;;;2.67;;
3979;SDS011;2004;52.452;13.120;2022-07-19T15:32:59;12.10;;;3.10;;
3979;SDS011;2004;52.452;13.120;2022-07-19T15:40:49;6.27;;;2.27;;
3979;SDS011;2004;52.452;13.120;2022-07-19T15:48:40;5.30;;;2.40;;
3979;SDS011;2004;52.452;13.120;2022-07-19T15:56:31;5.80;;;2.20;;
3979;SDS011;2004;52.452;13.120;2022-07-19T16:04:22;5.80;;;2.60;;
3979;SDS011;2004;52.452;13.120;2022-07-19T16:12:12;6.07;;;2.20;;
3979;SDS011;2004;52.452;13.120;2022-07-19T16:20:04;4.03;;;2.50;;
3979;SDS011;2004;52.452;13.120;2022-07-19T16:27:57;2.83;;;2.57;;
3979;SDS011;2004;52.452;13.120;2022-07-19T16:35:47;4.37;;;2.80;;
3979;SDS011;2004;52.452;13.120;2022-07-19T16:43:38;5.53;;;2.77;;
3979;SDS011;2004;52.452;13.120;2022-07-19T16:51:29;5.57;;;2.77;;
3979;SDS011;2004;52.452;13.120;2022-07-19T16:59:20;4.17;;;2.70;;
3979;SDS011;2004;52.452;13.120;2022-07-19T17:07:11;3.00;;;2.70;;
3979;SDS011;2004;52.452;13.120;2022-07-19T17:15:03;5.37;;;2.63;;
3979;SDS011;2004;52.452;13.120;2022-07-19T17:22:53;15.53;;;3.10;;
3979;SDS011;2004;52.452;13.120;2022-07-19T17:30:44;6.53;;;2.70;;
3979;SDS011;2004;52.452;13.120;2022-07-19T17:38:34;2.93;;;2.70;;
3979;SDS011;2004;52.452;13.120;2022-07-19T17:46:26;10.20;;;2.53;;
3979;SDS011;2004;52.452;13.120;2022-07-19T17:54:16;5.63;;;3.60;;
3979;SDS011;2004;52.452;13.120;2022-07-19T18:02:07;3.90;;;2.50;;
3979;SDS011;2004;52.452;13.120;2022-07-19T18:09:58;12.13;;;3.00;;
3979;SDS011;2004;52.452;13.120;2022-07-19T18:17:48;3.53;;;2.97;;
3979;SDS011;2004;52.452;13.120;2022-07-19T18:25:39;5.93;;;3.57;;
3979;SDS011;2004;52.452;13.120;2022-07-19T18:33:30;9.73;;;3.43;;
3979;SDS011;2004;52.452;13.120;2022-07-19T18:41:21;4.43;;;2.83;;
3979;SDS011;2004;52.452;13.120;2022-07-19T18:49:11;6.30;;;3.30;;
3979;SDS011;2004;52.452;13.120;2022-07-19T18:57:02;6.90;;;3.50;;
3979;SDS011;2004;52.452;13.120;2022-07-19T19:04:52;9.10;;;4.00;;
3979;SDS011;2004;52.452;13.120;2022-07-19T19:12:43;13.40;;;4.77;;
3979;SDS011;2004;52.452;13.120;2022-07-19T19:20:33;4.70;;;3.93;;
3979;SDS011;2004;52.452;13.120;2022-07-19T19:28:25;6.60;;;3.73;;
3979;SDS011;2004;52.452;13.120;2022-07-19T19:36:15;12.27;;;3.83;;
3979;SDS011;2004;52.452;13.120;2022-07-19T19:44:06;12.10;;;3.73;;
3979;SDS011;2004;52.452;13.120;2022-07-19T19:51:58;6.20;;;4.17;;
3979;SDS011;2004;52.452;13.120;2022-07-19T19:59:48;7.40;;;5.07;;
3979;SDS011;2004;52.452;13.120;2022-07-19T20:07:39;9.57;;;5.07;;
3979;SDS011;2004;52.452;13.120;2022-07-19T20:15:30;10.90;;;4.97;;
3979;SDS011;2004;52.452;13.120;2022-07-19T20:23:21;6.43;;;5.00;;
3979;SDS011;2004;52.452;13.120;2022-07-19T20:31:11;8.30;;;5.30;;
3979;SDS011;2004;52.452;13.120;2022-07-19T20:39:02;13.80;;;5.13;;
3979;SDS011;2004;52.452;13.120;2022-07-19T20:46:53;6.40;;;4.70;;
3979;SDS011;2004;52.452;13.120;2022-07-19T20:54:44;9.37;;;5.13;;
3979;SDS011;2004;52.452;13.120;2022-07-19T21:02:35;17.00;;;6.63;;
3979;SDS011;2004;52.452;13.120;2022-07-19T21:10:26;14.70;;;5.53;;
3979;SDS011;2004;52.452;13.120;2022-07-19T21:18:17;23.93;;;5.83;;
3979;SDS011;2004;52.452;13.120;2022-07-19T21:26:08;7.90;;;5.10;;
3979;SDS011;2004;52.452;13.120;2022-07-19T21:33:58;10.77;;;5.50;;
3979;SDS011;2004;52.452;13.120;2022-07-19T21:41:52;6.57;;;4.80;;
3979;SDS011;2004;52.452;13.120;2022-07-19T21:49:42;7.70;;;5.00;;
3979;SDS011;2004;52.452;13.120;2022-07-19T21:57:33;13.73;;;5.00;;
3979;SDS011;2004;52.452;13.120;2022-07-19T22:05:24;13.87;;;5.10;;
3979;SDS011;2004;52.452;13.120;2022-07-19T22:13:15;13.23;;;4.93;;
3979;SDS011;2004;52.452;13.120;2022-07-19T22:21:05;9.60;;;5.73;;
3979;SDS011;2004;52.452;13.120;2022-07-19T22:28:56;9.33;;;6.20;;
3979;SDS011;2004;52.452;13.120;2022-07-19T22:36:47;9.10;;;5.20;;
3979;SDS011;2004;52.452;13.120;2022-07-19T22:44:37;10.30;;;4.90;;
3979;SDS011;2004;52.452;13.120;2022-07-19T22:52:28;9.00;;;5.00;;
3979;SDS011;2004;52.452;13.120;2022-07-19T23:00:18;8.03;;;4.47;;
3979;SDS011;2004;52.452;13.120;2022-07-19T23:08:09;10.20;;;6.90;;
3979;SDS011;2004;52.452;13.120;2022-07-19T23:15:59;6.30;;;4.63;;
3979;SDS011;2004;52.452;13.120;2022-07-19T23:23:50;6.73;;;4.67;;
3979;SDS011;2004;52.452;13.120;2022-07-19T23:31:40;8.33;;;5.43;;
3979;SDS011;2004;52.452;13.120;2022-07-19T23:39:31;13.30;;;5.00;;
3979;SDS011;2004;52.452;13.120;2022-07-19T23:47:21;6.87;;;4.93;;
3979;SDS011;2004;52.452;13.120;2022-07-19T23:55:12;7.90;;;4.73;;
